Time;durP1;ratioP1;P1;durP2;ratioP2;P2;SDS_P1;SDS_P2;PMS_P1;PMS_P2;Temp;Humidity;BMP_temperature;BMP_pressure;BME280_temperature;BME280_humidity;BME280_pressure;Samples;Min_cycle;Max_cycle;Signal;HPM_P1;HPM_P2
2022/12/04 05:02:38;;;;;;;14.65;6.95;;;4.30;95.10;;;;;;5149920;23;93288;-71
2022/12/04 05:05:04;;;;;;;16.08;7.00;;;4.30;95.00;;;;;;4805165;29;91980;-71
2022/12/04 05:07:29;;;;;;;17.73;7.95;;;4.30;95.00;;;;;;4799522;29;91699;-70
2022/12/04 05:09:55;;;;;;;16.15;8.07;;;4.30;94.90;;;;;;4801280;29;92631;-71
2022/12/04 05:12:21;;;;;;;17.58;7.97;;;4.30;95.00;;;;;;4800559;29;92992;-71
2022/12/04 05:14:47;;;;;;;20.27;8.70;;;4.30;94.90;;;;;;4804777;29;92245;-71
2022/12/04 05:17:13;;;;;;;17.15;7.82;;;4.30;95.40;;;;;;4798112;29;91699;-70
2022/12/04 05:19:54;;;;;;;17.33;8.10;;;4.40;95.20;;;;;;4802106;29;93335;-71
2022/12/04 05:22:30;;;;;;;15.38;7.93;;;4.50;95.00;;;;;;4803220;29;93080;-71
2022/12/04 05:24:56;;;;;;;16.33;7.18;;;4.60;94.80;;;;;;4804753;29;91437;-70
2022/12/04 05:27:22;;;;;;;17.63;8.48;;;4.50;94.50;;;;;;4802483;29;92013;-69
2022/12/04 05:29:55;;;;;;;16.33;7.72;;;4.50;94.50;;;;;;4803462;29;92847;-69
2022/12/04 05:32:23;;;;;;;18.75;7.63;;;4.40;94.90;;;;;;4801706;29;92116;-70
2022/12/04 05:34:53;;;;;;;17.60;7.68;;;4.40;95.10;;;;;;4802374;29;91798;-69
2022/12/04 05:37:19;;;;;;;14.40;7.50;;;4.40;95.10;;;;;;4799071;29;90712;-69
2022/12/04 05:39:45;;;;;;;18.63;8.00;;;4.40;95.00;;;;;;4802695;29;91705;-70
2022/12/04 05:42:12;;;;;;;17.20;8.57;;;4.40;95.00;;;;;;4785829;29;94138;-70
2022/12/04 05:44:37;;;;;;;18.50;8.02;;;4.40;95.00;;;;;;4801793;29;94643;-70
2022/12/04 05:47:03;;;;;;;17.75;8.38;;;4.50;95.00;;;;;;4801584;29;91390;-70
2022/12/04 05:49:32;;;;;;;16.30;8.45;;;4.40;94.90;;;;;;4803802;29;92424;-70
2022/12/04 05:51:59;;;;;;;17.80;7.97;;;4.40;95.00;;;;;;4796352;29;93832;-70
2022/12/04 05:54:24;;;;;;;17.88;8.38;;;4.40;95.10;;;;;;4800494;29;91984;-70
2022/12/04 05:56:50;;;;;;;16.95;8.18;;;4.40;94.90;;;;;;4799286;29;91661;-69
2022/12/04 05:59:17;;;;;;;18.10;8.60;;;4.40;95.10;;;;;;4796706;29;94503;-70
2022/12/04 06:01:43;;;;;;;29.48;12.32;;;4.50;95.00;;;;;;4785654;29;93569;-69
2022/12/04 06:04:10;;;;;;;21.45;8.85;;;4.50;94.90;;;;;;4799620;29;91360;-70
2022/12/04 06:06:37;;;;;;;17.98;8.13;;;4.50;95.00;;;;;;4799748;29;91887;-69
2022/12/04 06:09:04;;;;;;;20.15;9.57;;;4.40;95.20;;;;;;4795368;29;93446;-70
2022/12/04 06:11:37;;;;;;;27.10;12.32;;;4.50;95.30;;;;;;4801969;29;92423;-69
2022/12/04 06:14:06;;;;;;;24.45;11.75;;;4.60;95.10;;;;;;4794302;29;91915;-70
2022/12/04 06:16:40;;;;;;;22.60;11.40;;;4.60;94.90;;;;;;4802664;29;91400;-71
2022/12/04 06:19:10;;;;;;;19.55;9.52;;;4.70;94.70;;;;;;4793507;29;91980;-70
2022/12/04 06:21:38;;;;;;;21.30;10.70;;;4.70;94.80;;;;;;4797000;29;91653;-70
2022/12/04 06:24:05;;;;;;;23.15;8.48;;;4.70;94.80;;;;;;4798900;29;91800;-71
2022/12/04 06:26:31;;;;;;;22.50;8.88;;;4.70;94.60;;;;;;4798464;29;91390;-71
2022/12/04 06:28:58;;;;;;;18.42;9.23;;;4.70;94.70;;;;;;4782854;29;93625;-70
2022/12/04 06:31:26;;;;;;;17.38;8.48;;;4.70;94.50;;;;;;4781211;29;94192;-70
2022/12/04 06:33:57;;;;;;;18.17;8.50;;;4.60;94.90;;;;;;4797141;29;93086;-70
2022/12/04 06:36:23;;;;;;;18.45;8.13;;;4.60;94.70;;;;;;4798073;29;91976;-70
2022/12/04 06:38:50;;;;;;;19.25;8.20;;;4.50;94.60;;;;;;4796838;29;92637;-70
2022/12/04 06:41:18;;;;;;;22.10;8.70;;;4.50;94.90;;;;;;4796692;29;91875;-70
2022/12/04 06:43:44;;;;;;;20.35;7.93;;;4.50;95.10;;;;;;4782765;29;91449;-70
2022/12/04 06:46:13;;;;;;;17.63;8.43;;;4.40;94.90;;;;;;4804349;29;91934;-69
2022/12/04 06:48:39;;;;;;;18.10;7.78;;;4.40;94.80;;;;;;4799444;29;92601;-69
2022/12/04 06:51:09;;;;;;;16.35;7.47;;;4.40;95.10;;;;;;4790746;29;93575;-70
2022/12/04 06:53:35;;;;;;;17.13;7.78;;;4.40;95.20;;;;;;4792023;29;92222;-70
2022/12/04 06:56:06;;;;;;;16.40;7.68;;;4.50;95.20;;;;;;4798384;29;92049;-70
2022/12/04 06:58:33;;;;;;;16.55;7.85;;;4.50;95.40;;;;;;4799289;29;94117;-70
2022/12/04 07:00:58;;;;;;;17.23;7.47;;;4.60;95.00;;;;;;4799583;29;93858;-70
2022/12/04 07:03:25;;;;;;;16.05;7.45;;;4.70;94.80;;;;;;4800947;29;92206;-70
2022/12/04 07:05:51;;;;;;;19.48;8.52;;;4.80;94.50;;;;;;4798729;29;92014;-71
2022/12/04 07:08:17;;;;;;;17.15;7.35;;;4.80;93.90;;;;;;4800258;29;92426;-70
2022/12/04 07:10:43;;;;;;;16.00;7.53;;;4.70;94.00;;;;;;4803125;29;92169;-70
2022/12/04 07:13:09;;;;;;;17.83;7.65;;;4.60;94.10;;;;;;4799930;29;92184;-70
2022/12/04 07:15:36;;;;;;;16.15;7.85;;;4.50;94.70;;;;;;4798678;29;90988;-70
2022/12/04 07:18:02;;;;;;;16.35;7.20;;;4.60;94.50;;;;;;4798696;29;95399;-69
2022/12/04 07:20:28;;;;;;;20.55;7.88;;;4.60;93.90;;;;;;4796699;29;92537;-70
2022/12/04 07:22:54;;;;;;;18.02;8.00;;;4.60;94.20;;;;;;4805531;29;92944;-70
2022/12/04 07:25:20;;;;;;;18.55;7.78;;;4.50;94.30;;;;;;4807205;29;91811;-70
2022/12/04 07:27:46;;;;;;;16.17;7.90;;;4.50;94.20;;;;;;4804003;29;92648;-71
2022/12/04 07:30:12;;;;;;;16.35;7.20;;;4.50;94.40;;;;;;4785894;29;92635;-70
2022/12/04 07:32:37;;;;;;;18.88;8.23;;;4.40;94.40;;;;;;4811769;29;91408;-70
2022/12/04 07:35:04;;;;;;;16.10;7.25;;;4.50;94.50;;;;;;4803943;29;91919;-69
2022/12/04 07:37:30;;;;;;;18.90;7.82;;;4.50;94.20;;;;;;4802767;29;92821;-69
2022/12/04 07:39:56;;;;;;;19.83;8.07;;;4.60;94.10;;;;;;4806636;29;92364;-70
2022/12/04 07:42:22;;;;;;;15.57;7.35;;;4.60;94.10;;;;;;4802622;29;92097;-70
2022/12/04 07:44:47;;;;;;;16.38;7.25;;;4.60;94.40;;;;;;4807231;29;91400;-69
2022/12/04 07:47:13;;;;;;;16.88;7.57;;;4.60;93.90;;;;;;4807453;29;93077;-70
2022/12/04 07:49:39;;;;;;;16.45;8.20;;;4.60;94.10;;;;;;4804760;29;93375;-70
2022/12/04 07:52:05;;;;;;;18.30;8.43;;;4.60;94.10;;;;;;4802839;29;91472;-70
2022/12/04 07:54:31;;;;;;;19.10;8.73;;;4.60;94.00;;;;;;4803657;29;92145;-70
2022/12/04 07:56:56;;;;;;;21.70;7.90;;;4.60;94.40;;;;;;4807035;29;92533;-71
2022/12/04 07:59:22;;;;;;;17.90;8.00;;;4.60;94.10;;;;;;4806270;29;92179;-70
2022/12/04 08:01:48;;;;;;;20.35;9.05;;;4.60;94.10;;;;;;4805778;29;91854;-71
2022/12/04 08:04:14;;;;;;;17.52;8.27;;;4.70;94.40;;;;;;4806522;29;91153;-71
2022/12/04 08:06:39;;;;;;;21.10;8.77;;;4.70;94.20;;;;;;4805226;29;92673;-70
2022/12/04 08:09:06;;;;;;;21.00;8.35;;;4.80;94.10;;;;;;4808441;29;92400;-70
2022/12/04 08:11:32;;;;;;;18.08;8.45;;;4.80;94.20;;;;;;4804679;29;92304;-70
2022/12/04 08:14:04;;;;;;;23.15;8.82;;;4.70;94.30;;;;;;4805692;29;91875;-70
2022/12/04 08:16:31;;;;;;;18.27;8.57;;;4.70;94.70;;;;;;4807474;29;92256;-70
2022/12/04 08:18:58;;;;;;;20.55;8.57;;;4.70;94.30;;;;;;4804254;29;92367;-71
2022/12/04 08:21:26;;;;;;;18.38;8.85;;;4.70;94.30;;;;;;4811113;29;93216;-70
2022/12/04 08:23:54;;;;;;;18.58;9.00;;;4.80;94.20;;;;;;4808922;29;91337;-71
2022/12/04 08:26:21;;;;;;;18.33;9.10;;;4.80;94.30;;;;;;4802634;29;93229;-70
2022/12/04 08:28:47;;;;;;;20.65;9.80;;;4.80;94.10;;;;;;4799106;29;93775;-71
2022/12/04 08:31:19;;;;;;;21.20;9.68;;;4.90;94.90;;;;;;4803368;29;92232;-70
2022/12/04 08:33:46;;;;;;;22.33;10.82;;;4.90;94.50;;;;;;4808882;29;91989;-69
2022/12/04 08:36:14;;;;;;;22.80;10.38;;;4.90;94.00;;;;;;4805655;29;93258;-69
2022/12/04 08:38:40;;;;;;;19.88;10.70;;;4.90;94.20;;;;;;4787548;29;94711;-70
2022/12/04 08:41:08;;;;;;;21.13;10.05;;;5.00;94.20;;;;;;4804502;29;91297;-69
2022/12/04 08:43:33;;;;;;;21.33;9.10;;;5.00;94.20;;;;;;4803828;29;92051;-69
2022/12/04 08:46:02;;;;;;;20.35;9.45;;;5.10;93.70;;;;;;4804271;29;92047;-69
2022/12/04 08:48:28;;;;;;;17.63;8.15;;;5.10;93.70;;;;;;4805157;29;91967;-69
2022/12/04 08:50:54;;;;;;;21.83;9.60;;;5.10;93.40;;;;;;4801799;29;91906;-71
2022/12/04 08:53:21;;;;;;;21.35;9.02;;;5.10;93.70;;;;;;4803836;29;90940;-69
2022/12/04 08:55:47;;;;;;;22.25;9.45;;;5.10;93.40;;;;;;4786752;29;93907;-70
2022/12/04 08:58:12;;;;;;;21.30;9.50;;;5.10;93.40;;;;;;4802482;29;91660;-72
2022/12/04 09:00:38;;;;;;;23.85;10.02;;;5.10;93.20;;;;;;4789580;29;92372;-71
2022/12/04 09:03:04;;;;;;;21.80;9.45;;;5.10;93.50;;;;;;4789335;29;92108;-71
2022/12/04 09:05:30;;;;;;;18.58;8.93;;;5.10;93.40;;;;;;4796310;29;93060;-70
2022/12/04 09:07:56;;;;;;;18.30;8.23;;;5.10;93.20;;;;;;4787585;29;94684;-71
2022/12/04 09:10:22;;;;;;;18.08;8.00;;;5.00;93.30;;;;;;4805438;29;92216;-70
2022/12/04 09:12:49;;;;;;;21.08;9.32;;;5.00;93.10;;;;;;4805683;29;92085;-70
2022/12/04 09:15:15;;;;;;;17.17;8.00;;;5.00;93.30;;;;;;4806628;29;92764;-71
2022/12/04 09:17:41;;;;;;;18.48;8.52;;;5.10;93.10;;;;;;4807361;29;92095;-70
2022/12/04 09:20:07;;;;;;;17.45;8.32;;;5.00;93.40;;;;;;4807395;29;91763;-70
2022/12/04 09:22:34;;;;;;;17.90;8.27;;;5.00;93.80;;;;;;4807382;29;92329;-70
2022/12/04 09:25:00;;;;;;;18.27;7.97;;;5.10;93.00;;;;;;4806279;29;92785;-71
2022/12/04 09:27:26;;;;;;;16.40;7.68;;;5.10;93.00;;;;;;4806558;29;94030;-70
2022/12/04 09:29:52;;;;;;;17.55;8.68;;;5.00;93.00;;;;;;4800696;29;92195;-70
2022/12/04 09:32:18;;;;;;;17.27;7.65;;;5.00;93.10;;;;;;4806292;29;91660;-70
2022/12/04 09:34:46;;;;;;;17.40;7.45;;;5.00;93.00;;;;;;4806565;29;92473;-70
2022/12/04 09:37:11;;;;;;;15.30;7.25;;;5.00;93.10;;;;;;4806205;29;91607;-71
2022/12/04 09:39:37;;;;;;;16.08;6.90;;;5.00;93.20;;;;;;4807337;29;92024;-70
2022/12/04 09:42:18;;;;;;;17.15;7.63;;;5.10;93.20;;;;;;4790686;29;91031;-71
2022/12/04 09:44:59;;;;;;;17.20;6.93;;;5.10;93.00;;;;;;4805047;29;92368;-70
2022/12/04 09:47:28;;;;;;;19.42;7.07;;;5.10;93.30;;;;;;4805185;29;91737;-71
2022/12/04 09:50:21;;;;;;;17.98;6.90;;;5.10;92.90;;;;;;4805357;29;92307;-70
2022/12/04 09:52:58;;;;;;;17.55;6.88;;;5.00;93.20;;;;;;4803621;29;91640;-70
2022/12/04 09:55:56;;;;;;;16.17;6.65;;;5.00;93.30;;;;;;4806465;29;91612;-70
2022/12/04 09:58:57;;;;;;;16.42;6.75;;;5.00;93.30;;;;;;4805665;29;92156;-71
2022/12/04 10:01:28;;;;;;;16.33;6.88;;;5.00;93.20;;;;;;4783246;29;92128;-71
2022/12/04 10:03:55;;;;;;;15.88;6.70;;;5.00;93.20;;;;;;4804681;29;92060;-70
2022/12/04 10:06:27;;;;;;;19.92;7.65;;;5.10;93.10;;;;;;4805446;29;92433;-72
2022/12/04 10:09:04;;;;;;;16.35;7.32;;;5.10;93.20;;;;;;4806918;29;92384;-69
2022/12/04 10:11:33;;;;;;;16.77;7.40;;;5.10;93.70;;;;;;4803445;29;91974;-70
2022/12/04 10:14:10;;;;;;;19.35;7.65;;;5.30;93.30;;;;;;4806977;29;91746;-71
2022/12/04 10:16:51;;;;;;;15.15;6.40;;;5.40;93.20;;;;;;4806031;29;92851;-70
2022/12/04 10:20:08;;;;;;;16.50;6.68;;;5.40;92.30;;;;;;4804808;29;92797;-70
2022/12/04 10:22:42;;;;;;;14.60;5.93;;;5.30;92.50;;;;;;4772720;29;91665;-70
2022/12/04 10:25:13;;;;;;;13.73;5.95;;;5.30;92.20;;;;;;4806801;29;91315;-70
2022/12/04 10:28:18;;;;;;;16.02;6.50;;;5.30;92.40;;;;;;4802387;29;92689;-70
2022/12/04 10:30:45;;;;;;;16.52;6.30;;;5.30;92.20;;;;;;4784317;29;92134;-70
2022/12/04 10:33:21;;;;;;;14.82;6.43;;;5.40;92.10;;;;;;4806526;29;91340;-71
2022/12/04 10:35:53;;;;;;;13.88;6.15;;;5.30;92.00;;;;;;4803477;29;91710;-70
2022/12/04 10:38:40;;;;;;;13.63;5.95;;;5.40;92.00;;;;;;4801688;29;92117;-70
2022/12/04 10:41:27;;;;;;;16.52;6.43;;;5.40;92.40;;;;;;4805712;29;92085;-68
2022/12/04 10:43:53;;;;;;;15.23;6.30;;;5.60;92.00;;;;;;4803177;29;93021;-70
2022/12/04 10:46:22;;;;;;;17.15;6.25;;;5.70;91.70;;;;;;4806061;29;92160;-70
2022/12/04 10:48:51;;;;;;;14.38;6.03;;;5.80;91.10;;;;;;4805177;29;92006;-70
2022/12/04 10:51:20;;;;;;;16.55;6.82;;;5.70;91.60;;;;;;4805789;29;92515;-70
2022/12/04 10:53:48;;;;;;;17.80;7.50;;;5.80;91.40;;;;;;4806010;29;91345;-71
2022/12/04 10:56:22;;;;;;;17.75;7.53;;;5.80;91.10;;;;;;4805633;29;92405;-71
2022/12/04 10:59:04;;;;;;;15.85;6.65;;;5.70;91.40;;;;;;4806077;29;93385;-70
2022/12/04 11:01:32;;;;;;;18.63;8.07;;;5.70;91.20;;;;;;4805368;29;92366;-70
2022/12/04 11:04:18;;;;;;;17.15;7.13;;;5.70;91.10;;;;;;4802096;29;91860;-70
2022/12/04 11:06:44;;;;;;;19.00;7.80;;;5.80;91.30;;;;;;4803630;29;91454;-71
2022/12/04 11:09:24;;;;;;;15.27;6.53;;;5.90;91.10;;;;;;4805533;29;94293;-70
2022/12/04 11:11:51;;;;;;;16.35;6.07;;;5.80;91.20;;;;;;4805078;29;93368;-70
2022/12/04 11:14:20;;;;;;;15.80;6.50;;;5.90;91.20;;;;;;4802616;29;91314;-71
2022/12/04 11:16:59;;;;;;;19.15;6.53;;;5.90;91.00;;;;;;4804385;29;92054;-71
2022/12/04 11:19:27;;;;;;;16.40;6.82;;;5.90;91.00;;;;;;4799379;29;92719;-70
2022/12/04 11:21:55;;;;;;;17.98;6.57;;;5.80;91.00;;;;;;4804476;29;92503;-70
2022/12/04 11:24:35;;;;;;;20.80;8.70;;;5.70;91.50;;;;;;4804855;29;91896;-70
2022/12/04 11:27:03;;;;;;;21.33;7.78;;;5.80;91.60;;;;;;4805473;29;90796;-71
2022/12/04 11:29:36;;;;;;;19.35;7.85;;;5.80;91.40;;;;;;4804010;29;91768;-70
2022/12/04 11:32:03;;;;;;;20.05;7.90;;;5.90;91.80;;;;;;4790535;29;94927;-69
2022/12/04 11:34:39;;;;;;;19.33;7.93;;;5.80;91.80;;;;;;4804441;29;92529;-70
2022/12/04 11:37:14;;;;;;;17.90;6.95;;;5.90;91.80;;;;;;4805225;29;92292;-70
2022/12/04 11:39:40;;;;;;;18.38;7.80;;;5.90;91.50;;;;;;4801005;29;92542;-70
2022/12/04 11:42:12;;;;;;;19.85;8.68;;;6.00;91.60;;;;;;4804611;29;92003;-69
2022/12/04 11:44:47;;;;;;;111.63;38.17;;;6.00;91.50;;;;;;4798037;29;91965;-70
2022/12/04 11:47:18;;;;;;;66.18;20.30;;;6.10;91.60;;;;;;4799847;29;92000;-71
2022/12/04 11:49:43;;;;;;;;;;;6.10;91.60;;;;;;4804114;29;92041;-70
2022/12/04 11:52:31;;;;;;;18.17;7.75;;;6.20;91.50;;;;;;4805923;29;91757;-71
2022/12/04 11:55:08;;;;;;;18.60;7.50;;;6.20;91.60;;;;;;4803061;29;91386;-70
2022/12/04 11:57:41;;;;;;;15.77;7.03;;;6.30;91.40;;;;;;4801791;29;91261;-69
2022/12/04 12:00:18;;;;;;;20.52;8.13;;;6.30;91.40;;;;;;4800869;29;93336;-69
2022/12/04 12:02:57;;;;;;;20.02;8.07;;;6.40;91.40;;;;;;4804798;29;93074;-70
2022/12/04 12:05:44;;;;;;;19.30;7.93;;;6.40;91.70;;;;;;4791227;29;91370;-71
2022/12/04 12:08:19;;;;;;;21.45;8.40;;;6.50;91.50;;;;;;4807263;29;91981;-70
2022/12/04 12:10:58;;;;;;;21.10;8.48;;;6.40;91.60;;;;;;4790331;29;94285;-69
2022/12/04 12:13:48;;;;;;;20.83;8.98;;;6.50;91.60;;;;;;4806667;29;92142;-69
2022/12/04 12:16:28;;;;;;;23.50;8.98;;;6.50;91.50;;;;;;4803157;29;91886;-69
2022/12/04 12:18:54;;;;;;;24.75;9.43;;;6.40;91.50;;;;;;4807446;29;91100;-69
2022/12/04 12:21:34;;;;;;;22.58;8.50;;;6.50;91.50;;;;;;4806104;29;92376;-70
2022/12/04 12:24:25;;;;;;;23.63;10.10;;;6.50;91.50;;;;;;4800413;29;92556;-70
2022/12/04 12:27:18;;;;;;;22.65;8.20;;;6.60;91.50;;;;;;4799336;29;92327;-70
2022/12/04 12:29:52;;;;;;;24.15;9.02;;;6.50;91.60;;;;;;4804360;29;91646;-70
2022/12/04 12:32:45;;;;;;;21.27;8.25;;;6.50;91.40;;;;;;4804462;29;92260;-70
2022/12/04 12:35:27;;;;;;;26.92;8.13;;;6.40;91.60;;;;;;4791013;29;93499;-70
2022/12/04 12:37:56;;;;;;;23.77;9.13;;;6.30;91.70;;;;;;4802302;29;91799;-70
2022/12/04 12:40:34;;;;;;;23.50;8.60;;;6.30;91.70;;;;;;4797110;29;91991;-69
2022/12/04 12:43:05;;;;;;;22.52;8.07;;;6.20;91.80;;;;;;4799153;29;95898;-70
2022/12/04 12:46:08;;;;;;;21.75;8.32;;;6.20;91.90;;;;;;4799783;29;92505;-70
2022/12/04 12:48:58;;;;;;;22.83;7.97;;;6.10;91.80;;;;;;4800174;29;91348;-70
2022/12/04 12:51:35;;;;;;;20.98;8.30;;;6.10;92.00;;;;;;4796037;29;91836;-69
2022/12/04 12:54:14;;;;;;;23.10;8.45;;;6.20;92.20;;;;;;4802395;29;92885;-70
2022/12/04 12:56:45;;;;;;;21.52;8.85;;;6.20;92.00;;;;;;4804778;29;93042;-69
2022/12/04 12:59:15;;;;;;;22.88;8.98;;;6.30;92.10;;;;;;4805592;29;92107;-70
2022/12/04 13:02:00;;;;;;;22.70;8.65;;;6.30;92.00;;;;;;4787521;29;91999;-70
2022/12/04 13:04:45;;;;;;;22.52;7.90;;;6.20;92.10;;;;;;4804274;29;92615;-70
2022/12/04 13:07:42;;;;;;;22.20;8.05;;;6.10;92.30;;;;;;4790693;29;94263;-71
2022/12/04 13:10:34;;;;;;;22.10;8.45;;;6.20;92.20;;;;;;4805074;29;91862;-68
2022/12/04 13:13:09;;;;;;;22.50;7.82;;;6.30;92.00;;;;;;4800554;29;90869;-70
2022/12/04 13:15:44;;;;;;;24.33;8.35;;;6.10;92.10;;;;;;4804253;29;92863;-69
2022/12/04 13:18:26;;;;;;;21.38;8.02;;;6.10;92.10;;;;;;4804235;29;91712;-69
2022/12/04 13:20:59;;;;;;;24.65;8.18;;;6.10;92.00;;;;;;4796511;29;92788;-69
2022/12/04 13:23:55;;;;;;;26.05;8.85;;;6.10;92.00;;;;;;4792209;29;92021;-69
2022/12/04 13:26:39;;;;;;;20.95;7.78;;;6.20;92.10;;;;;;4797384;29;92442;-71
2022/12/04 13:29:14;;;;;;;23.80;8.52;;;6.20;91.90;;;;;;4794891;29;91521;-73
2022/12/04 13:31:48;;;;;;;17.88;7.68;;;6.20;91.90;;;;;;4801027;29;92091;-69
2022/12/04 13:34:45;;;;;;;23.73;8.43;;;6.30;91.90;;;;;;4778294;29;91844;-70
2022/12/04 13:37:29;;;;;;;19.83;8.07;;;6.10;92.00;;;;;;4795853;29;91797;-71
2022/12/04 13:39:58;;;;;;;20.38;7.88;;;6.20;92.20;;;;;;4801073;29;92476;-68
2022/12/04 13:42:26;;;;;;;21.73;8.20;;;6.20;92.20;;;;;;4783827;29;91992;-70
2022/12/04 13:45:22;;;;;;;20.00;8.10;;;6.20;91.80;;;;;;4798245;29;91367;-70
2022/12/04 13:47:54;;;;;;;;;;;6.20;91.80;;;;;;4800141;29;92894;-71
2022/12/04 13:50:28;;;;;;;20.63;7.75;;;6.30;91.50;;;;;;4802536;29;92391;-70
2022/12/04 13:52:54;;;;;;;21.23;8.18;;;6.40;91.80;;;;;;4804321;29;91374;-70
2022/12/04 13:55:38;;;;;;;21.30;8.82;;;6.50;91.50;;;;;;4804223;29;91862;-70
2022/12/04 13:58:10;;;;;;;18.45;7.63;;;6.50;91.30;;;;;;4804230;29;91999;-70
2022/12/04 14:00:38;;;;;;;21.73;8.23;;;6.50;91.10;;;;;;4803657;29;92394;-71
2022/12/04 14:03:20;;;;;;;22.13;7.82;;;6.50;91.30;;;;;;4803388;29;91767;-71
2022/12/04 14:05:47;;;;;;;21.35;8.57;;;6.50;91.30;;;;;;4789821;29;91404;-68
2022/12/04 14:08:19;;;;;;;20.52;8.20;;;6.50;91.00;;;;;;4804402;29;92119;-70
2022/12/04 14:10:58;;;;;;;20.05;8.18;;;6.50;90.90;;;;;;4804013;29;91923;-71
2022/12/04 14:13:33;;;;;;;25.50;9.13;;;6.50;91.00;;;;;;4803925;29;93022;-68
2022/12/04 14:16:23;;;;;;;21.10;7.95;;;6.50;91.00;;;;;;4798913;29;92347;-69
2022/12/04 14:18:54;;;;;;;19.88;6.85;;;6.40;90.70;;;;;;4799080;29;92630;-70
2022/12/04 14:21:21;;;;;;;19.60;7.45;;;6.40;90.60;;;;;;4802484;29;92479;-70
2022/12/04 14:23:47;;;;;;;20.67;7.45;;;6.30;90.70;;;;;;4804028;29;91993;-71
2022/12/04 14:26:35;;;;;;;21.38;8.38;;;6.20;90.90;;;;;;4804137;29;91954;-68
2022/12/04 14:29:24;;;;;;;20.75;7.85;;;6.20;90.90;;;;;;4803570;29;92015;-71
2022/12/04 14:31:50;;;;;;;17.58;6.97;;;6.20;91.00;;;;;;4802957;29;92137;-71
2022/12/04 14:34:21;;;;;;;23.35;8.75;;;6.30;91.50;;;;;;4805053;29;92000;-71
2022/12/04 14:36:50;;;;;;;18.98;7.78;;;6.20;90.90;;;;;;4804251;29;92086;-71
2022/12/04 14:39:39;;;;;;;20.90;9.30;;;6.10;91.40;;;;;;4803535;29;93524;-70
2022/12/04 14:42:24;;;;;;;22.23;9.18;;;6.10;91.10;;;;;;4798350;29;92227;-69
2022/12/04 14:45:22;;;;;;;21.48;8.35;;;6.20;90.90;;;;;;4802284;29;91945;-70
2022/12/04 14:48:03;;;;;;;21.58;8.55;;;6.20;90.80;;;;;;4779818;29;91401;-69
2022/12/04 14:50:47;;;;;;;21.65;8.05;;;6.30;90.80;;;;;;4804204;29;92098;-70
2022/12/04 14:53:29;;;;;;;22.20;8.30;;;6.20;90.80;;;;;;4797812;29;92742;-70
2022/12/04 14:56:10;;;;;;;22.15;8.43;;;6.10;91.00;;;;;;4794579;29;92429;-70
2022/12/04 14:58:37;;;;;;;22.73;8.60;;;6.10;91.00;;;;;;4798956;29;91504;-70
2022/12/04 15:01:18;;;;;;;22.90;8.65;;;6.00;91.20;;;;;;4797055;29;92546;-71
2022/12/04 15:03:46;;;;;;;23.42;8.68;;;6.00;91.40;;;;;;4799857;29;92366;-69
2022/12/04 15:06:23;;;;;;;26.10;9.18;;;6.00;91.50;;;;;;4798294;29;93065;-69
2022/12/04 15:08:52;;;;;;;24.77;9.57;;;6.10;91.40;;;;;;4793091;29;92102;-70
2022/12/04 15:14:12;;;;;;;24.90;9.38;;;6.00;91.70;;;;;;4795678;29;92124;-69
2022/12/04 15:16:39;;;;;;;25.40;9.05;;;5.90;91.80;;;;;;4799075;29;91818;-70
2022/12/04 15:19:04;;;;;;;23.33;8.60;;;5.90;92.30;;;;;;4798267;29;91558;-69
2022/12/04 15:21:41;;;;;;;22.70;8.18;;;6.00;91.80;;;;;;4800007;29;92329;-69
2022/12/04 15:24:18;;;;;;;22.85;8.82;;;6.00;91.80;;;;;;4797785;29;92145;-70
2022/12/04 15:26:45;;;;;;;26.20;9.70;;;5.90;91.90;;;;;;4796594;29;92015;-70
2022/12/04 15:29:19;;;;;;;26.10;9.90;;;5.90;92.00;;;;;;4799613;29;93255;-70
2022/12/04 15:31:55;;;;;;;22.10;8.95;;;5.80;92.30;;;;;;4795770;29;93021;-70
2022/12/04 15:34:33;;;;;;;24.13;9.85;;;5.90;92.20;;;;;;4796045;29;92839;-69
2022/12/04 15:37:06;;;;;;;23.38;8.90;;;5.90;92.00;;;;;;4794993;29;91420;-70
2022/12/04 15:39:33;;;;;;;23.45;9.23;;;5.90;92.50;;;;;;4790202;29;91416;-70
2022/12/04 15:42:03;;;;;;;26.27;9.45;;;5.90;92.30;;;;;;4791062;29;91912;-70
2022/12/04 15:44:31;;;;;;;23.75;9.35;;;5.90;92.30;;;;;;4784018;29;93992;-69
2022/12/04 15:47:00;;;;;;;23.52;9.25;;;6.00;92.20;;;;;;4788056;29;91531;-69
2022/12/04 15:49:28;;;;;;;24.20;9.05;;;6.00;92.20;;;;;;4799129;29;90578;-69
2022/12/04 15:52:05;;;;;;;23.08;8.38;;;6.00;92.10;;;;;;4803904;29;95795;-70
2022/12/04 15:54:31;;;;;;;24.48;8.18;;;6.00;92.00;;;;;;4796476;29;93730;-70
2022/12/04 15:57:06;;;;;;;26.05;9.77;;;5.90;92.20;;;;;;4777884;29;92670;-69
2022/12/04 15:59:34;;;;;;;26.50;8.77;;;5.90;92.20;;;;;;4796521;29;92131;-69
2022/12/04 16:02:20;;;;;;;27.15;9.68;;;5.90;92.30;;;;;;4786594;29;93651;-70
2022/12/04 16:04:46;;;;;;;26.52;9.55;;;5.80;92.40;;;;;;4802357;29;93356;-69
2022/12/04 16:07:26;;;;;;;24.70;9.43;;;5.90;92.30;;;;;;4805080;29;94578;-70
2022/12/04 16:09:55;;;;;;;26.10;8.93;;;5.90;92.40;;;;;;4803828;29;91871;-71
2022/12/04 16:12:31;;;;;;;24.83;9.75;;;5.80;92.30;;;;;;4798063;29;92815;-70
2022/12/04 16:14:57;;;;;;;25.77;9.68;;;5.80;92.50;;;;;;4784539;29;96097;-69
2022/12/04 16:17:30;;;;;;;25.23;9.55;;;5.90;92.40;;;;;;4799485;29;91741;-70
2022/12/04 16:19:57;;;;;;;24.23;8.85;;;5.90;92.60;;;;;;4792267;29;91635;-69
2022/12/04 16:22:25;;;;;;;26.65;10.05;;;6.00;92.60;;;;;;4791896;29;93498;-72
2022/12/04 16:24:51;;;;;;;27.45;9.27;;;5.90;92.50;;;;;;4792623;29;92759;-69
2022/12/04 16:27:21;;;;;;;26.35;9.48;;;5.90;92.50;;;;;;4803695;29;91987;-68
2022/12/04 16:29:48;;;;;;;24.48;9.13;;;6.00;92.70;;;;;;4792357;29;92063;-69
2022/12/04 16:32:17;;;;;;;26.95;10.40;;;5.90;92.60;;;;;;4776989;29;94240;-69
2022/12/04 16:34:43;;;;;;;27.08;9.90;;;6.00;92.50;;;;;;4778358;29;95339;-69
2022/12/04 16:37:12;;;;;;;26.10;9.73;;;6.00;92.50;;;;;;4794906;29;91846;-69
2022/12/04 16:39:37;;;;;;;27.83;10.25;;;6.10;92.30;;;;;;4795920;29;90862;-69
2022/12/04 16:42:03;;;;;;;33.25;12.45;;;6.00;92.20;;;;;;4782271;29;93721;-69
2022/12/04 16:44:29;;;;;;;30.15;10.10;;;5.90;92.50;;;;;;4794146;29;92164;-69
2022/12/04 16:46:54;;;;;;;23.67;8.85;;;5.90;92.50;;;;;;4799920;29;92944;-69
2022/12/04 16:49:20;;;;;;;27.92;9.70;;;5.90;92.40;;;;;;4797291;29;91507;-69
2022/12/04 16:51:49;;;;;;;27.35;9.90;;;5.90;92.40;;;;;;4798572;29;91884;-70
2022/12/04 16:54:16;;;;;;;25.30;9.30;;;5.90;92.70;;;;;;4786925;29;95797;-69
2022/12/04 16:56:42;;;;;;;24.92;9.18;;;5.90;92.70;;;;;;4801420;29;91397;-69
2022/12/04 16:59:07;;;;;;;29.02;9.80;;;6.00;92.50;;;;;;4797055;29;91364;-69
2022/12/04 17:01:37;;;;;;;27.95;9.43;;;6.00;92.50;;;;;;4799351;29;93505;-69
2022/12/04 17:04:03;;;;;;;25.65;9.52;;;6.00;92.20;;;;;;4802625;29;93865;-70
2022/12/04 17:06:30;;;;;;;24.98;8.93;;;6.00;92.60;;;;;;4800664;29;92224;-69
2022/12/04 17:08:56;;;;;;;26.13;8.75;;;5.90;92.70;;;;;;4803230;29;91729;-69
2022/12/04 17:11:22;;;;;;;25.05;8.35;;;5.90;92.80;;;;;;4805761;29;95923;-69
2022/12/04 17:13:48;;;;;;;21.75;8.35;;;5.90;92.70;;;;;;4806551;29;92809;-71
2022/12/04 17:16:15;;;;;;;23.65;8.90;;;6.00;92.70;;;;;;4788196;29;91697;-69
2022/12/04 17:18:41;;;;;;;30.73;9.52;;;6.00;92.80;;;;;;4802202;29;91956;-69
2022/12/04 17:21:09;;;;;;;27.48;9.70;;;6.00;92.80;;;;;;4793730;29;93135;-69
2022/12/04 17:23:35;;;;;;;19.83;7.97;;;6.10;92.60;;;;;;4802746;29;92272;-69
2022/12/04 17:26:06;;;;;;;24.00;8.88;;;6.10;92.40;;;;;;4795594;29;91410;-69
2022/12/04 17:28:32;;;;;;;24.88;8.90;;;6.00;92.40;;;;;;4797968;29;90636;-69
2022/12/04 17:31:01;;;;;;;24.35;8.57;;;5.90;92.50;;;;;;4793595;29;92126;-70
2022/12/04 17:33:27;;;;;;;23.73;8.52;;;5.90;92.70;;;;;;4794608;29;91421;-69
2022/12/04 17:35:53;;;;;;;24.77;9.05;;;6.00;92.90;;;;;;4794534;29;94424;-69
2022/12/04 17:38:19;;;;;;;20.92;8.25;;;6.10;92.60;;;;;;4792433;29;91822;-70
2022/12/04 17:40:55;;;;;;;24.85;8.45;;;6.10;92.30;;;;;;4793494;29;93807;-69
2022/12/04 17:43:21;;;;;;;23.08;7.90;;;6.20;92.20;;;;;;4793205;29;92434;-68
2022/12/04 17:45:46;;;;;;;20.35;7.75;;;6.20;92.10;;;;;;4795270;29;91384;-68
2022/12/04 17:48:12;;;;;;;22.25;8.27;;;6.20;92.10;;;;;;4800478;29;91316;-66
2022/12/04 17:50:39;;;;;;;22.48;7.60;;;6.20;92.00;;;;;;4795120;29;92161;-66
2022/12/04 17:53:05;;;;;;;22.02;8.30;;;6.20;91.80;;;;;;4798497;29;92398;-66
2022/12/04 17:55:33;;;;;;;18.95;7.82;;;6.20;92.00;;;;;;4804282;29;91892;-67
2022/12/04 17:57:59;;;;;;;23.05;8.27;;;6.20;92.30;;;;;;4787888;29;92214;-66
2022/12/04 18:00:26;;;;;;;21.27;8.48;;;6.20;91.90;;;;;;4787982;29;94362;-67
2022/12/04 18:02:52;;;;;;;22.38;8.45;;;6.10;92.20;;;;;;4782257;29;94641;-68
2022/12/04 18:05:18;;;;;;;22.67;9.68;;;6.20;92.20;;;;;;4778044;29;91984;-68
2022/12/04 18:07:44;;;;;;;22.20;9.00;;;6.20;91.90;;;;;;4775488;29;92051;-68
2022/12/04 18:10:13;;;;;;;23.88;9.38;;;6.30;92.00;;;;;;4780073;29;92179;-67
2022/12/04 18:12:40;;;;;;;22.10;8.73;;;6.30;91.90;;;;;;4784387;29;91831;-67
2022/12/04 18:15:09;;;;;;;24.38;9.05;;;6.40;91.80;;;;;;4779479;29;92103;-67